sensor_id;sensor_type;location;lat;lon;timestamp;pressure;altitude;pressure_sealevel;temperature;humidity
69257;BME280;56376;53.356;-1.748;2023-06-26T00:01:32;99325.66;;;15.80;100.00
69257;BME280;56376;53.356;-1.748;2023-06-26T00:03:58;99325.75;;;15.78;100.00
69257;BME280;56376;53.356;-1.748;2023-06-26T00:06:25;99327.91;;;15.72;100.00
69257;BME280;56376;53.356;-1.748;2023-06-26T00:08:54;99324.59;;;15.68;100.00
69257;BME280;56376;53.356;-1.748;2023-06-26T00:11:20;99325.13;;;15.59;100.00
69257;BME280;56376;53.356;-1.748;2023-06-26T00:13:46;99334.81;;;15.58;100.00
69257;BME280;56376;53.356;-1.748;2023-06-26T00:16:11;99322.69;;;15.56;100.00
69257;BME280;56376;53.356;-1.748;2023-06-26T00:18:36;99332.38;;;15.55;100.00
69257;BME280;56376;53.356;-1.748;2023-06-26T00:21:02;99331.63;;;15.53;100.00
69257;BME280;56376;53.356;-1.748;2023-06-26T00:23:27;99324.66;;;15.52;100.00
69257;BME280;56376;53.356;-1.748;2023-06-26T00:25:53;99329.19;;;15.50;100.00
69257;BME280;56376;53.356;-1.748;2023-06-26T00:28:18;99334.50;;;15.49;100.00
69257;BME280;56376;53.356;-1.748;2023-06-26T00:30:44;99342.34;;;15.50;100.00
69257;BME280;56376;53.356;-1.748;2023-06-26T00:33:09;99340.63;;;15.49;100.00
69257;BME280;56376;53.356;-1.748;2023-06-26T00:35:35;99348.72;;;15.46;100.00
69257;BME280;56376;53.356;-1.748;2023-06-26T00:38:01;99346.19;;;15.45;100.00
69257;BME280;56376;53.356;-1.748;2023-06-26T00:40:26;99359.63;;;15.40;100.00
69257;BME280;56376;53.356;-1.748;2023-06-26T00:42:52;99351.97;;;15.35;100.00
69257;BME280;56376;53.356;-1.748;2023-06-26T00:45:18;99351.22;;;15.33;100.00
69257;BME280;56376;53.356;-1.748;2023-06-26T00:47:44;99349.44;;;15.34;100.00
69257;BME280;56376;53.356;-1.748;2023-06-26T00:50:09;99350.28;;;15.34;100.00
69257;BME280;56376;53.356;-1.748;2023-06-26T00:52:36;99347.75;;;15.33;100.00
69257;BME280;56376;53.356;-1.748;2023-06-26T00:55:01;99346.22;;;15.29;100.00
69257;BME280;56376;53.356;-1.748;2023-06-26T00:57:27;99351.59;;;15.27;100.00
69257;BME280;56376;53.356;-1.748;2023-06-26T00:59:53;99355.91;;;15.28;100.00
69257;BME280;56376;53.356;-1.748;2023-06-26T01:02:18;99350.81;;;15.25;100.00
69257;BME280;56376;53.356;-1.748;2023-06-26T01:04:49;99342.25;;;15.22;100.00
69257;BME280;56376;53.356;-1.748;2023-06-26T01:07:15;99359.75;;;15.23;100.00
69257;BME280;56376;53.356;-1.748;2023-06-26T01:09:41;99358.22;;;15.19;100.00
69257;BME280;56376;53.356;-1.748;2023-06-26T01:12:07;99354.16;;;15.13;100.00
69257;BME280;56376;53.356;-1.748;2023-06-26T01:14:34;99368.16;;;15.13;100.00
69257;BME280;56376;53.356;-1.748;2023-06-26T01:17:01;99363.94;;;15.11;100.00
69257;BME280;56376;53.356;-1.748;2023-06-26T01:19:29;99364.03;;;15.09;100.00
69257;BME280;56376;53.356;-1.748;2023-06-26T01:24:32;99379.38;;;15.01;100.00
69257;BME280;56376;53.356;-1.748;2023-06-26T01:26:59;99376.84;;;14.84;100.00
69257;BME280;56376;53.356;-1.748;2023-06-26T01:29:27;99385.09;;;14.78;100.00
69257;BME280;56376;53.356;-1.748;2023-06-26T01:31:53;99384.59;;;14.71;100.00
69257;BME280;56376;53.356;-1.748;2023-06-26T01:34:19;99389.69;;;14.74;100.00
69257;BME280;56376;53.356;-1.748;2023-06-26T01:36:45;99384.34;;;14.76;100.00
69257;BME280;56376;53.356;-1.748;2023-06-26T01:39:15;99381.69;;;14.76;100.00
69257;BME280;56376;53.356;-1.748;2023-06-26T01:41:41;99376.63;;;14.73;100.00
69257;BME280;56376;53.356;-1.748;2023-06-26T01:49:31;99403.81;;;14.71;100.00
69257;BME280;56376;53.356;-1.748;2023-06-26T01:52:07;99401.13;;;14.73;100.00
69257;BME280;56376;53.356;-1.748;2023-06-26T01:54:38;99411.56;;;14.75;100.00
69257;BME280;56376;53.356;-1.748;2023-06-26T01:57:04;99409.72;;;14.77;100.00
69257;BME280;56376;53.356;-1.748;2023-06-26T01:59:32;99414.78;;;14.80;100.00
69257;BME280;56376;53.356;-1.748;2023-06-26T02:02:00;99419.88;;;14.83;100.00
69257;BME280;56376;53.356;-1.748;2023-06-26T02:04:26;99412.94;;;14.82;100.00
69257;BME280;56376;53.356;-1.748;2023-06-26T02:06:51;99418.25;;;14.80;100.00
69257;BME280;56376;53.356;-1.748;2023-06-26T02:09:17;99406.13;;;14.78;100.00
69257;BME280;56376;53.356;-1.748;2023-06-26T02:11:42;99408.00;;;14.76;100.00
69257;BME280;56376;53.356;-1.748;2023-06-26T02:14:08;99409.72;;;14.77;100.00
69257;BME280;56376;53.356;-1.748;2023-06-26T02:16:34;99405.53;;;14.73;100.00
69257;BME280;56376;53.356;-1.748;2023-06-26T02:18:59;99406.56;;;14.70;100.00
69257;BME280;56376;53.356;-1.748;2023-06-26T02:21:25;99408.16;;;14.73;100.00
69257;BME280;56376;53.356;-1.748;2023-06-26T02:23:50;99397.06;;;14.67;100.00
69257;BME280;56376;53.356;-1.748;2023-06-26T02:26:16;99404.34;;;14.62;100.00
69257;BME280;56376;53.356;-1.748;2023-06-26T02:28:41;99411.47;;;14.60;100.00
69257;BME280;56376;53.356;-1.748;2023-06-26T02:31:07;99406.22;;;14.60;100.00
69257;BME280;56376;53.356;-1.748;2023-06-26T02:33:32;99401.31;;;14.54;100.00
69257;BME280;56376;53.356;-1.748;2023-06-26T02:35:57;99392.63;;;14.52;100.00
69257;BME280;56376;53.356;-1.748;2023-06-26T02:38:23;99399.59;;;14.53;100.00
69257;BME280;56376;53.356;-1.748;2023-06-26T02:40:48;99395.25;;;14.52;100.00
69257;BME280;56376;53.356;-1.748;2023-06-26T02:43:13;99390.16;;;14.49;100.00
69257;BME280;56376;53.356;-1.748;2023-06-26T02:45:39;99383.19;;;14.48;100.00
69257;BME280;56376;53.356;-1.748;2023-06-26T02:48:04;99393.53;;;14.51;100.00
69257;BME280;56376;53.356;-1.748;2023-06-26T02:50:30;99392.53;;;14.54;100.00
69257;BME280;56376;53.356;-1.748;2023-06-26T02:52:55;99392.47;;;14.55;100.00
69257;BME280;56376;53.356;-1.748;2023-06-26T02:55:20;99385.53;;;14.54;100.00
69257;BME280;56376;53.356;-1.748;2023-06-26T02:57:46;99388.91;;;14.56;100.00
69257;BME280;56376;53.356;-1.748;2023-06-26T03:00:12;99400.28;;;14.57;100.00
69257;BME280;56376;53.356;-1.748;2023-06-26T03:02:38;99403.00;;;14.55;100.00
69257;BME280;56376;53.356;-1.748;2023-06-26T03:05:03;99399.41;;;14.56;100.00
69257;BME280;56376;53.356;-1.748;2023-06-26T03:07:29;99409.78;;;14.59;100.00
69257;BME280;56376;53.356;-1.748;2023-06-26T03:09:55;99410.53;;;14.61;100.00
69257;BME280;56376;53.356;-1.748;2023-06-26T03:12:20;99406.97;;;14.62;100.00
69257;BME280;56376;53.356;-1.748;2023-06-26T03:14:46;99407.81;;;14.63;100.00
69257;BME280;56376;53.356;-1.748;2023-06-26T03:17:11;99400.72;;;14.65;100.00
69257;BME280;56376;53.356;-1.748;2023-06-26T03:19:36;99416.38;;;14.66;100.00
69257;BME280;56376;53.356;-1.748;2023-06-26T03:22:02;99414.03;;;14.62;100.00
69257;BME280;56376;53.356;-1.748;2023-06-26T03:24:29;99418.50;;;14.60;100.00
69257;BME280;56376;53.356;-1.748;2023-06-26T03:26:54;99421.38;;;14.55;100.00
69257;BME280;56376;53.356;-1.748;2023-06-26T03:29:19;99426.09;;;14.48;100.00
69257;BME280;56376;53.356;-1.748;2023-06-26T03:31:45;99432.28;;;14.47;100.00
69257;BME280;56376;53.356;-1.748;2023-06-26T03:34:10;99427.19;;;14.44;100.00
69257;BME280;56376;53.356;-1.748;2023-06-26T03:36:36;99434.06;;;14.47;100.00
69257;BME280;56376;53.356;-1.748;2023-06-26T03:39:01;99443.03;;;14.43;100.00
69257;BME280;56376;53.356;-1.748;2023-06-26T03:41:26;99437.00;;;14.41;100.00
69257;BME280;56376;53.356;-1.748;2023-06-26T03:43:52;99445.59;;;14.44;100.00
69257;BME280;56376;53.356;-1.748;2023-06-26T03:46:18;99446.44;;;14.45;100.00
69257;BME280;56376;53.356;-1.748;2023-06-26T03:48:43;99444.41;;;14.50;100.00
69257;BME280;56376;53.356;-1.748;2023-06-26T03:51:08;99442.78;;;14.47;100.00
69257;BME280;56376;53.356;-1.748;2023-06-26T03:53:34;99443.81;;;14.45;100.00
69257;BME280;56376;53.356;-1.748;2023-06-26T03:55:59;99449.91;;;14.45;100.00
69257;BME280;56376;53.356;-1.748;2023-06-26T03:58:25;99449.06;;;14.45;100.00
69257;BME280;56376;53.356;-1.748;2023-06-26T04:00:50;99444.81;;;14.42;100.00
69257;BME280;56376;53.356;-1.748;2023-06-26T04:03:16;99450.91;;;14.43;100.00
69257;BME280;56376;53.356;-1.748;2023-06-26T04:05:41;99442.38;;;14.39;100.00
69257;BME280;56376;53.356;-1.748;2023-06-26T04:08:08;99440.66;;;14.38;100.00
69257;BME280;56376;53.356;-1.748;2023-06-26T04:10:33;99442.44;;;14.38;100.00
69257;BME280;56376;53.356;-1.748;2023-06-26T04:12:59;99450.66;;;14.32;100.00
69257;BME280;56376;53.356;-1.748;2023-06-26T04:15:24;99457.94;;;14.26;100.00
69257;BME280;56376;53.356;-1.748;2023-06-26T04:17:49;99465.28;;;14.20;100.00
69257;BME280;56376;53.356;-1.748;2023-06-26T04:20:15;99468.06;;;14.17;100.00
69257;BME280;56376;53.356;-1.748;2023-06-26T04:22:40;99471.59;;;14.16;100.00
69257;BME280;56376;53.356;-1.748;2023-06-26T04:25:06;99479.41;;;14.17;100.00
69257;BME280;56376;53.356;-1.748;2023-06-26T04:27:32;99477.72;;;14.16;100.00
69257;BME280;56376;53.356;-1.748;2023-06-26T04:29:57;99488.63;;;14.09;100.00
69257;BME280;56376;53.356;-1.748;2023-06-26T04:32:22;99502.00;;;14.04;100.00
69257;BME280;56376;53.356;-1.748;2023-06-26T04:34:48;99481.06;;;14.02;100.00
69257;BME280;56376;53.356;-1.748;2023-06-26T04:37:14;99501.28;;;14.00;100.00
69257;BME280;56376;53.356;-1.748;2023-06-26T04:39:42;99506.53;;;14.00;100.00
69257;BME280;56376;53.356;-1.748;2023-06-26T04:42:08;99506.47;;;14.02;100.00
69257;BME280;56376;53.356;-1.748;2023-06-26T04:44:34;99508.31;;;14.00;100.00
69257;BME280;56376;53.356;-1.748;2023-06-26T04:46:59;99509.09;;;14.02;100.00
69257;BME280;56376;53.356;-1.748;2023-06-26T04:49:25;99512.28;;;14.09;100.00
69257;BME280;56376;53.356;-1.748;2023-06-26T04:51:51;99500.81;;;14.10;100.00
69257;BME280;56376;53.356;-1.748;2023-06-26T04:54:16;99516.19;;;14.17;100.00
69257;BME280;56376;53.356;-1.748;2023-06-26T04:56:42;99507.25;;;14.21;100.00
69257;BME280;56376;53.356;-1.748;2023-06-26T04:59:09;99507.84;;;14.26;100.00
69257;BME280;56376;53.356;-1.748;2023-06-26T05:01:39;99511.75;;;14.35;100.00
69257;BME280;56376;53.356;-1.748;2023-06-26T05:04:05;99513.38;;;14.38;100.00
69257;BME280;56376;53.356;-1.748;2023-06-26T05:06:30;99522.94;;;14.39;100.00
69257;BME280;56376;53.356;-1.748;2023-06-26T05:08:56;99519.72;;;14.34;100.00
69257;BME280;56376;53.356;-1.748;2023-06-26T05:11:21;99509.13;;;14.35;100.00
69257;BME280;56376;53.356;-1.748;2023-06-26T05:13:47;99522.44;;;14.32;100.00
69257;BME280;56376;53.356;-1.748;2023-06-26T05:16:12;99521.34;;;14.36;100.00
69257;BME280;56376;53.356;-1.748;2023-06-26T05:18:37;99518.47;;;14.41;100.00
69257;BME280;56376;53.356;-1.748;2023-06-26T05:21:03;99518.34;;;14.44;100.00
69257;BME280;56376;53.356;-1.748;2023-06-26T05:23:33;99525.22;;;14.46;100.00
69257;BME280;56376;53.356;-1.748;2023-06-26T05:26:02;99528.59;;;14.48;100.00
69257;BME280;56376;53.356;-1.748;2023-06-26T05:28:29;99526.06;;;14.47;100.00
69257;BME280;56376;53.356;-1.748;2023-06-26T05:30:57;99524.25;;;14.47;100.00
69257;BME280;56376;53.356;-1.748;2023-06-26T05:33:23;99532.09;;;14.49;100.00
69257;BME280;56376;53.356;-1.748;2023-06-26T05:35:52;99530.28;;;14.49;100.00
69257;BME280;56376;53.356;-1.748;2023-06-26T05:38:18;99531.13;;;14.50;100.00
69257;BME280;56376;53.356;-1.748;2023-06-26T05:40:44;99539.19;;;14.47;100.00
69257;BME280;56376;53.356;-1.748;2023-06-26T05:43:09;99542.91;;;14.43;100.00
69257;BME280;56376;53.356;-1.748;2023-06-26T05:45:35;99542.72;;;14.46;100.00
69257;BME280;56376;53.356;-1.748;2023-06-26T05:48:01;99546.06;;;14.49;100.00
69257;BME280;56376;53.356;-1.748;2023-06-26T05:50:27;99544.22;;;14.52;100.00
69257;BME280;56376;53.356;-1.748;2023-06-26T05:52:53;99543.28;;;14.53;100.00
69257;BME280;56376;53.356;-1.748;2023-06-26T05:55:19;99547.63;;;14.54;100.00
69257;BME280;56376;53.356;-1.748;2023-06-26T05:57:46;99546.47;;;14.59;100.00
69257;BME280;56376;53.356;-1.748;2023-06-26T06:00:12;99537.81;;;14.57;100.00
69257;BME280;56376;53.356;-1.748;2023-06-26T06:02:39;99545.53;;;14.60;100.00
69257;BME280;56376;53.356;-1.748;2023-06-26T06:05:05;99547.81;;;14.66;100.00
69257;BME280;56376;53.356;-1.748;2023-06-26T06:07:34;99553.53;;;14.75;100.00
69257;BME280;56376;53.356;-1.748;2023-06-26T06:10:01;99564.72;;;14.78;100.00
69257;BME280;56376;53.356;-1.748;2023-06-26T06:12:26;99554.22;;;14.78;100.00
69257;BME280;56376;53.356;-1.748;2023-06-26T06:14:52;99556.25;;;14.73;100.00
69257;BME280;56376;53.356;-1.748;2023-06-26T06:17:19;99564.91;;;14.75;100.00
69257;BME280;56376;53.356;-1.748;2023-06-26T06:19:45;99558.09;;;14.71;100.00
69257;BME280;56376;53.356;-1.748;2023-06-26T06:22:10;99551.31;;;14.67;100.00
69257;BME280;56376;53.356;-1.748;2023-06-26T06:24:35;99559.09;;;14.68;100.00
69257;BME280;56376;53.356;-1.748;2023-06-26T06:27:01;99553.00;;;14.68;100.00
69257;BME280;56376;53.356;-1.748;2023-06-26T06:29:26;99561.91;;;14.65;100.00
69257;BME280;56376;53.356;-1.748;2023-06-26T06:31:51;99567.16;;;14.65;100.00
69257;BME280;56376;53.356;-1.748;2023-06-26T06:34:17;99567.16;;;14.65;100.00
69257;BME280;56376;53.356;-1.748;2023-06-26T06:36:42;99574.03;;;14.68;100.00
69257;BME280;56376;53.356;-1.748;2023-06-26T06:39:08;99574.97;;;14.67;100.00
69257;BME280;56376;53.356;-1.748;2023-06-26T06:41:33;99584.50;;;14.69;100.00
69257;BME280;56376;53.356;-1.748;2023-06-26T06:43:59;99580.97;;;14.69;100.00
69257;BME280;56376;53.356;-1.748;2023-06-26T06:46:24;99592.97;;;14.75;100.00
69257;BME280;56376;53.356;-1.748;2023-06-26T06:48:52;99596.38;;;14.77;100.00
69257;BME280;56376;53.356;-1.748;2023-06-26T06:51:17;99592.47;;;14.84;100.00
69257;BME280;56376;53.356;-1.748;2023-06-26T06:53:43;99597.25;;;14.93;100.00
69257;BME280;56376;53.356;-1.748;2023-06-26T06:56:08;99600.66;;;14.95;100.00
69257;BME280;56376;53.356;-1.748;2023-06-26T06:58:34;99604.06;;;14.97;100.00
69257;BME280;56376;53.356;-1.748;2023-06-26T07:01:01;99617.31;;;15.11;100.00
69257;BME280;56376;53.356;-1.748;2023-06-26T07:03:29;99615.03;;;15.21;100.00
69257;BME280;56376;53.356;-1.748;2023-06-26T07:05:55;99611.31;;;15.41;100.00
69257;BME280;56376;53.356;-1.748;2023-06-26T07:08:20;99611.44;;;15.55;100.00
69257;BME280;56376;53.356;-1.748;2023-06-26T07:10:46;99615.06;;;15.69;100.00
69257;BME280;56376;53.356;-1.748;2023-06-26T07:13:11;99616.53;;;15.74;100.00
69257;BME280;56376;53.356;-1.748;2023-06-26T07:15:37;99621.91;;;15.73;100.00
69257;BME280;56376;53.356;-1.748;2023-06-26T07:18:02;99616.94;;;15.67;100.00
69257;BME280;56376;53.356;-1.748;2023-06-26T07:20:27;99619.34;;;15.71;100.00
69257;BME280;56376;53.356;-1.748;2023-06-26T07:22:53;99626.47;;;15.85;100.00
69257;BME280;56376;53.356;-1.748;2023-06-26T07:25:18;99630.13;;;15.98;100.00
69257;BME280;56376;53.356;-1.748;2023-06-26T07:27:43;99637.13;;;16.14;100.00
69257;BME280;56376;53.356;-1.748;2023-06-26T07:30:10;99635.47;;;16.27;100.00
69257;BME280;56376;53.356;-1.748;2023-06-26T07:32:36;99648.06;;;16.38;100.00
69257;BME280;56376;53.356;-1.748;2023-06-26T07:35:02;99639.00;;;16.42;100.00
69257;BME280;56376;53.356;-1.748;2023-06-26T07:37:27;99633.09;;;16.53;100.00
69257;BME280;56376;53.356;-1.748;2023-06-26T07:39:53;99638.34;;;16.69;100.00
69257;BME280;56376;53.356;-1.748;2023-06-26T07:42:18;99644.31;;;16.86;98.75
69257;BME280;56376;53.356;-1.748;2023-06-26T07:44:44;99644.31;;;17.01;96.04
69257;BME280;56376;53.356;-1.748;2023-06-26T07:47:10;99645.47;;;17.11;96.17
69257;BME280;56376;53.356;-1.748;2023-06-26T07:49:36;99636.03;;;17.21;93.16
69257;BME280;56376;53.356;-1.748;2023-06-26T07:52:02;99648.94;;;17.26;94.25
69257;BME280;56376;53.356;-1.748;2023-06-26T07:54:28;99635.09;;;17.37;94.94
69257;BME280;56376;53.356;-1.748;2023-06-26T07:56:58;99648.06;;;17.54;94.48
69257;BME280;56376;53.356;-1.748;2023-06-26T07:59:25;99641.13;;;17.66;93.73
69257;BME280;56376;53.356;-1.748;2023-06-26T08:01:51;99632.44;;;17.78;92.84
69257;BME280;56376;53.356;-1.748;2023-06-26T08:04:18;99636.66;;;17.95;92.99
69257;BME280;56376;53.356;-1.748;2023-06-26T08:06:45;99633.97;;;18.09;90.34
69257;BME280;56376;53.356;-1.748;2023-06-26T08:09:11;99637.50;;;18.23;89.35
69257;BME280;56376;53.356;-1.748;2023-06-26T08:11:38;99649.91;;;18.35;88.35
69257;BME280;56376;53.356;-1.748;2023-06-26T08:14:03;99662.38;;;18.33;88.83
69257;BME280;56376;53.356;-1.748;2023-06-26T08:16:28;99667.94;;;18.15;86.68
69257;BME280;56376;53.356;-1.748;2023-06-26T08:18:54;99666.09;;;18.03;87.97
69257;BME280;56376;53.356;-1.748;2023-06-26T08:21:19;99659.16;;;17.88;90.63
69257;BME280;56376;53.356;-1.748;2023-06-26T08:23:44;99664.25;;;17.77;93.61
69257;BME280;56376;53.356;-1.748;2023-06-26T08:26:10;99661.69;;;17.75;96.09
69257;BME280;56376;53.356;-1.748;2023-06-26T08:28:35;99659.69;;;17.79;95.72
69257;BME280;56376;53.356;-1.748;2023-06-26T08:31:01;99647.81;;;17.86;95.18
69257;BME280;56376;53.356;-1.748;2023-06-26T08:33:26;99652.06;;;17.88;94.27
69257;BME280;56376;53.356;-1.748;2023-06-26T08:35:52;99638.09;;;17.86;93.33
69257;BME280;56376;53.356;-1.748;2023-06-26T08:38:17;99649.13;;;17.93;91.75
69257;BME280;56376;53.356;-1.748;2023-06-26T08:40:43;99651.13;;;17.89;92.21
69257;BME280;56376;53.356;-1.748;2023-06-26T08:43:09;99657.25;;;17.90;89.78
69257;BME280;56376;53.356;-1.748;2023-06-26T08:45:35;99664.44;;;17.88;89.08
69257;BME280;56376;53.356;-1.748;2023-06-26T08:48:00;99652.91;;;17.89;88.24
69257;BME280;56376;53.356;-1.748;2023-06-26T08:50:30;99662.63;;;17.88;87.02
69257;BME280;56376;53.356;-1.748;2023-06-26T08:53:07;99661.78;;;17.88;87.30
69257;BME280;56376;53.356;-1.748;2023-06-26T08:55:38;99658.94;;;17.91;88.41
69257;BME280;56376;53.356;-1.748;2023-06-26T08:58:06;99660.66;;;17.92;88.87
69257;BME280;56376;53.356;-1.748;2023-06-26T09:00:32;99657.69;;;17.97;87.55
69257;BME280;56376;53.356;-1.748;2023-06-26T09:02:58;99662.59;;;18.03;86.59
69257;BME280;56376;53.356;-1.748;2023-06-26T09:05:25;99667.03;;;18.02;84.26
69257;BME280;56376;53.356;-1.748;2023-06-26T09:07:52;99676.84;;;18.00;82.14
69257;BME280;56376;53.356;-1.748;2023-06-26T09:10:21;99664.56;;;17.99;82.54
69257;BME280;56376;53.356;-1.748;2023-06-26T09:12:47;99679.41;;;18.02;83.42
69257;BME280;56376;53.356;-1.748;2023-06-26T09:15:14;99675.91;;;18.01;83.21
69257;BME280;56376;53.356;-1.748;2023-06-26T09:17:40;99673.38;;;18.00;80.63
69257;BME280;56376;53.356;-1.748;2023-06-26T09:20:07;99684.69;;;18.02;82.37
69257;BME280;56376;53.356;-1.748;2023-06-26T09:22:36;99676.84;;;18.00;80.25
69257;BME280;56376;53.356;-1.748;2023-06-26T09:25:04;99684.78;;;18.00;80.30
69257;BME280;56376;53.356;-1.748;2023-06-26T09:27:30;99679.28;;;18.03;81.30
69257;BME280;56376;53.356;-1.748;2023-06-26T09:29:56;99690.13;;;18.13;81.38
69257;BME280;56376;53.356;-1.748;2023-06-26T09:32:26;99682.81;;;18.16;80.42
69257;BME280;56376;53.356;-1.748;2023-06-26T09:34:53;99683.38;;;18.22;79.01
69257;BME280;56376;53.356;-1.748;2023-06-26T09:37:21;99681.09;;;18.30;80.05
69257;BME280;56376;53.356;-1.748;2023-06-26T09:39:46;99688.81;;;18.33;78.57
69257;BME280;56376;53.356;-1.748;2023-06-26T09:42:13;99697.59;;;18.33;78.22
69257;BME280;56376;53.356;-1.748;2023-06-26T09:44:46;99698.25;;;18.37;77.53
69257;BME280;56376;53.356;-1.748;2023-06-26T09:47:11;99699.94;;;18.38;77.19
69257;BME280;56376;53.356;-1.748;2023-06-26T09:49:41;99720.34;;;18.36;77.87
69257;BME280;56376;53.356;-1.748;2023-06-26T09:52:07;99718.00;;;18.31;78.90
69257;BME280;56376;53.356;-1.748;2023-06-26T09:54:33;99720.38;;;18.22;76.55
69257;BME280;56376;53.356;-1.748;2023-06-26T09:57:08;99720.53;;;18.06;77.16
69257;BME280;56376;53.356;-1.748;2023-06-26T09:59:35;99723.97;;;17.93;78.90
69257;BME280;56376;53.356;-1.748;2023-06-26T10:02:00;99720.41;;;17.80;80.71
69257;BME280;56376;53.356;-1.748;2023-06-26T10:04:26;99714.53;;;17.75;81.35
69257;BME280;56376;53.356;-1.748;2023-06-26T10:06:56;99729.09;;;17.82;82.09
69257;BME280;56376;53.356;-1.748;2023-06-26T10:09:24;99723.13;;;17.93;81.29
69257;BME280;56376;53.356;-1.748;2023-06-26T10:12:03;99725.94;;;18.04;79.26
69257;BME280;56376;53.356;-1.748;2023-06-26T10:14:34;99729.03;;;18.11;79.67
69257;BME280;56376;53.356;-1.748;2023-06-26T10:17:01;99732.13;;;18.17;78.28
69257;BME280;56376;53.356;-1.748;2023-06-26T10:19:30;99723.56;;;18.27;79.13
69257;BME280;56376;53.356;-1.748;2023-06-26T10:21:58;99736.22;;;18.36;80.06
69257;BME280;56376;53.356;-1.748;2023-06-26T10:24:26;99737.44;;;18.45;78.06
69257;BME280;56376;53.356;-1.748;2023-06-26T10:27:02;99736.69;;;18.43;75.30
69257;BME280;56376;53.356;-1.748;2023-06-26T10:29:30;99732.97;;;18.45;75.94
69257;BME280;56376;53.356;-1.748;2023-06-26T10:31:57;99727.38;;;18.50;76.71
69257;BME280;56376;53.356;-1.748;2023-06-26T10:34:24;99737.63;;;18.54;77.04
69257;BME280;56376;53.356;-1.748;2023-06-26T10:36:59;99741.03;;;18.56;75.42
69257;BME280;56376;53.356;-1.748;2023-06-26T10:39:25;99747.59;;;18.51;75.37
69257;BME280;56376;53.356;-1.748;2023-06-26T10:41:54;99753.59;;;18.40;76.17
69257;BME280;56376;53.356;-1.748;2023-06-26T10:44:20;99759.25;;;18.34;76.55
69257;BME280;56376;53.356;-1.748;2023-06-26T10:46:55;99754.47;;;18.26;76.48
69257;BME280;56376;53.356;-1.748;2023-06-26T10:49:29;99753.72;;;18.24;77.45
69257;BME280;56376;53.356;-1.748;2023-06-26T10:52:01;99743.03;;;18.26;77.31
69257;BME280;56376;53.356;-1.748;2023-06-26T10:54:31;99751.44;;;18.32;77.93
69257;BME280;56376;53.356;-1.748;2023-06-26T10:56:57;99755.47;;;18.38;77.95
69257;BME280;56376;53.356;-1.748;2023-06-26T10:59:24;99762.06;;;18.45;77.84
69257;BME280;56376;53.356;-1.748;2023-06-26T11:02:04;99750.88;;;18.54;76.77
69257;BME280;56376;53.356;-1.748;2023-06-26T11:04:50;99751.63;;;18.56;75.86
69257;BME280;56376;53.356;-1.748;2023-06-26T11:07:19;99759.69;;;18.55;75.80
69257;BME280;56376;53.356;-1.748;2023-06-26T11:10:02;99759.75;;;18.53;75.28
69257;BME280;56376;53.356;-1.748;2023-06-26T11:12:37;99767.41;;;18.58;75.37
69257;BME280;56376;53.356;-1.748;2023-06-26T11:15:16;99763.25;;;18.54;73.65
69257;BME280;56376;53.356;-1.748;2023-06-26T11:17:43;99753.72;;;18.51;73.50
69257;BME280;56376;53.356;-1.748;2023-06-26T11:20:10;99764.50;;;18.48;72.75
69257;BME280;56376;53.356;-1.748;2023-06-26T11:22:38;99761.22;;;18.45;73.70
69257;BME280;56376;53.356;-1.748;2023-06-26T11:25:04;99764.72;;;18.45;73.13
69257;BME280;56376;53.356;-1.748;2023-06-26T11:27:41;99765.41;;;18.34;74.39
69257;BME280;56376;53.356;-1.748;2023-06-26T11:30:08;99771.63;;;18.33;74.89
69257;BME280;56376;53.356;-1.748;2023-06-26T11:32:35;99773.34;;;18.34;75.44
69257;BME280;56376;53.356;-1.748;2023-06-26T11:35:01;99770.50;;;18.37;75.95
69257;BME280;56376;53.356;-1.748;2023-06-26T11:37:26;99773.50;;;18.46;76.99
69257;BME280;56376;53.356;-1.748;2023-06-26T11:39:52;99779.25;;;18.52;76.66
69257;BME280;56376;53.356;-1.748;2023-06-26T11:42:18;99779.13;;;18.54;75.91
69257;BME280;56376;53.356;-1.748;2023-06-26T11:44:44;99792.25;;;18.55;75.68
69257;BME280;56376;53.356;-1.748;2023-06-26T11:47:18;99788.84;;;18.53;74.49
69257;BME280;56376;53.356;-1.748;2023-06-26T11:49:46;99796.03;;;18.51;74.66
69257;BME280;56376;53.356;-1.748;2023-06-26T11:52:13;99796.25;;;18.48;75.59
69257;BME280;56376;53.356;-1.748;2023-06-26T11:54:38;99805.13;;;18.47;75.40
69257;BME280;56376;53.356;-1.748;2023-06-26T11:57:04;99809.69;;;18.45;74.02
69257;BME280;56376;53.356;-1.748;2023-06-26T11:59:35;99793.53;;;18.35;74.74
69257;BME280;56376;53.356;-1.748;2023-06-26T12:02:04;99804.75;;;18.39;75.53
69257;BME280;56376;53.356;-1.748;2023-06-26T12:04:31;99790.41;;;18.43;75.71
69257;BME280;56376;53.356;-1.748;2023-06-26T12:06:56;99783.88;;;18.49;76.12
69257;BME280;56376;53.356;-1.748;2023-06-26T12:09:23;99765.94;;;18.67;77.97
69257;BME280;56376;53.356;-1.748;2023-06-26T12:11:53;99780.41;;;18.75;77.48
69257;BME280;56376;53.356;-1.748;2023-06-26T12:14:20;99782.94;;;18.77;75.70
69257;BME280;56376;53.356;-1.748;2023-06-26T12:16:45;99783.09;;;18.74;74.35
69257;BME280;56376;53.356;-1.748;2023-06-26T12:19:11;99793.91;;;18.71;74.49
69257;BME280;56376;53.356;-1.748;2023-06-26T12:24:02;99810.28;;;18.63;74.16
69257;BME280;56376;53.356;-1.748;2023-06-26T12:26:28;99806.25;;;18.57;75.33
69257;BME280;56376;53.356;-1.748;2023-06-26T12:31:28;99808.44;;;18.51;76.33
69257;BME280;56376;53.356;-1.748;2023-06-26T12:33:53;99800.56;;;18.49;75.73
69257;BME280;56376;53.356;-1.748;2023-06-26T12:36:19;99807.59;;;18.50;74.66
69257;BME280;56376;53.356;-1.748;2023-06-26T12:38:45;99797.28;;;18.46;74.58
69257;BME280;56376;53.356;-1.748;2023-06-26T12:41:14;99796.34;;;18.47;75.15
69257;BME280;56376;53.356;-1.748;2023-06-26T12:43:40;99803.97;;;18.51;76.16
69257;BME280;56376;53.356;-1.748;2023-06-26T12:46:06;99799.03;;;18.59;75.64
69257;BME280;56376;53.356;-1.748;2023-06-26T12:48:41;99789.94;;;18.78;75.29
69257;BME280;56376;53.356;-1.748;2023-06-26T12:51:13;99788.06;;;18.93;74.54
69257;BME280;56376;53.356;-1.748;2023-06-26T12:53:39;99784.41;;;19.21;74.00